createdAt,value
2022-08-26T00:04:11.957Z,22.20
2022-08-26T00:09:16.078Z,22.11
2022-08-26T00:14:18.542Z,21.98
2022-08-26T00:19:22.224Z,21.91
2022-08-26T00:24:24.224Z,21.93
2022-08-26T00:29:27.281Z,21.94
2022-08-26T00:34:29.120Z,21.88
2022-08-26T00:39:31.400Z,21.88
2022-08-26T00:44:33.106Z,21.62
2022-08-26T00:49:44.647Z,21.55
2022-08-26T00:55:40.190Z,21.57
2022-08-26T01:00:41.961Z,21.56
2022-08-26T01:05:47.025Z,21.58
2022-08-26T01:10:49.181Z,21.62
2022-08-26T01:16:00.899Z,21.65
2022-08-26T01:21:47.256Z,21.69
2022-08-26T01:26:49.979Z,21.76
2022-08-26T01:31:57.156Z,21.78
2022-08-26T01:37:21.903Z,21.60
2022-08-26T01:42:26.962Z,21.74
2022-08-26T01:47:33.314Z,21.67
2022-08-26T01:52:41.058Z,21.42
2022-08-26T01:57:48.408Z,21.37
2022-08-26T02:03:15.912Z,21.32
2022-08-26T02:08:36.782Z,21.36
2022-08-26T02:13:51.652Z,21.24
2022-08-26T02:18:58.478Z,21.26
2022-08-26T02:24:17.618Z,21.21
2022-08-26T02:29:44.682Z,21.27
2022-08-26T02:34:47.156Z,21.23
2022-08-26T02:39:48.899Z,21.11
2022-08-26T02:44:50.787Z,21.28
2022-08-26T02:49:52.904Z,21.26
2022-08-26T02:54:54.678Z,21.34
2022-08-26T02:59:57.273Z,21.20
2022-08-26T03:05:02.536Z,21.37
2022-08-26T03:10:08.764Z,21.36
2022-08-26T03:15:17.996Z,21.19
2022-08-26T03:20:20.485Z,21.27
2022-08-26T03:25:23.068Z,21.20
2022-08-26T03:30:44.855Z,21.17
2022-08-26T03:35:50.778Z,21.19
2022-08-26T03:40:52.706Z,21.19
2022-08-26T03:45:54.374Z,21.18
2022-08-26T03:50:56.473Z,21.08
2022-08-26T03:55:59.558Z,20.95
2022-08-26T04:01:01.257Z,20.87
2022-08-26T04:06:04.542Z,20.82
2022-08-26T04:11:07.286Z,20.94
2022-08-26T04:16:10.194Z,20.92
2022-08-26T04:21:12.746Z,20.92
2022-08-26T04:26:20.837Z,20.81
2022-08-26T04:31:22.970Z,20.67
2022-08-26T04:36:25.249Z,20.71
2022-08-26T04:41:27.798Z,20.78
2022-08-26T04:46:33.648Z,20.87
2022-08-26T04:51:37.265Z,20.98
2022-08-26T04:56:45.148Z,20.91
2022-08-26T05:01:52.317Z,21.13
2022-08-26T05:06:59.268Z,21.19
2022-08-26T05:12:04.878Z,21.29
2022-08-26T05:17:06.807Z,21.53
2022-08-26T05:22:08.543Z,21.65
2022-08-26T05:27:11.781Z,21.83
2022-08-26T05:32:13.828Z,21.97
2022-08-26T05:37:16.561Z,22.00
2022-08-26T05:42:19.825Z,22.06
2022-08-26T05:47:21.507Z,22.15
2022-08-26T05:52:25.968Z,22.25
2022-08-26T05:57:30.830Z,22.44
2022-08-26T06:02:32.575Z,23.66
2022-08-26T06:07:52.835Z,24.66
2022-08-26T06:12:54.613Z,25.64
2022-08-26T06:17:56.930Z,26.34
2022-08-26T06:23:17.717Z,27.02
2022-08-26T06:28:19.452Z,26.70
2022-08-26T06:33:27.861Z,26.59
2022-08-26T06:38:29.646Z,26.65
2022-08-26T06:43:31.413Z,27.94
2022-08-26T06:48:35.160Z,28.83
2022-08-26T06:53:41.054Z,29.56
2022-08-26T06:58:44.060Z,29.48
2022-08-26T07:03:48.603Z,30.05
2022-08-26T07:08:54.433Z,29.60
2022-08-26T07:13:56.466Z,29.13
2022-08-26T07:18:58.697Z,29.45
2022-08-26T07:24:04.311Z,29.76
2022-08-26T07:29:06.831Z,30.78
2022-08-26T07:34:09.289Z,30.14
2022-08-26T07:39:11.461Z,31.82
2022-08-26T07:44:15.450Z,33.50
2022-08-26T07:49:17.775Z,31.51
2022-08-26T07:54:20.724Z,32.07
2022-08-26T07:59:28.449Z,30.97
2022-08-26T08:04:32.415Z,31.51
2022-08-26T08:09:34.315Z,30.27
2022-08-26T08:14:37.306Z,30.46
2022-08-26T08:19:39.504Z,31.19
2022-08-26T08:24:41.214Z,30.29
2022-08-26T08:29:43.429Z,29.23
2022-08-26T08:34:45.157Z,28.92
2022-08-26T08:39:46.883Z,30.47
2022-08-26T08:44:57.182Z,32.33
2022-08-26T08:50:20.467Z,31.57
2022-08-26T08:55:28.248Z,33.32
2022-08-26T09:00:46.979Z,34.16
2022-08-26T09:05:53.271Z,33.55
2022-08-26T09:11:00.890Z,33.26
2022-08-26T09:16:13.913Z,32.24
2022-08-26T09:21:23.517Z,31.29
2022-08-26T09:26:45.237Z,29.68
2022-08-26T09:31:50.776Z,29.72
2022-08-26T09:36:54.991Z,29.93
2022-08-26T09:42:19.819Z,30.03
2022-08-26T09:47:55.957Z,29.76
2022-08-26T09:53:09.996Z,30.27
2022-08-26T09:58:37.973Z,31.17
2022-08-26T10:03:40.917Z,32.27
2022-08-26T10:08:49.844Z,32.89
2022-08-26T10:14:12.516Z,33.34
2022-08-26T10:19:29.150Z,33.02
2022-08-26T10:24:55.151Z,33.22
2022-08-26T10:30:10.354Z,32.78
2022-08-26T10:35:17.174Z,32.51
2022-08-26T10:40:50.075Z,32.40
2022-08-26T10:46:06.898Z,30.65
2022-08-26T10:51:12.742Z,29.21
2022-08-26T10:56:36.954Z,28.76
2022-08-26T11:01:52.405Z,29.30
2022-08-26T11:07:42.039Z,29.12
2022-08-26T11:12:45.339Z,29.64
2022-08-26T11:17:50.814Z,29.95
2022-08-26T11:22:56.510Z,29.50
2022-08-26T11:28:02.222Z,29.35
2022-08-26T11:33:06.036Z,28.98
2022-08-26T11:38:28.954Z,29.09
2022-08-26T11:43:33.561Z,28.41
2022-08-26T11:48:43.494Z,27.26
2022-08-26T11:53:47.218Z,26.21
2022-08-26T11:58:49.890Z,25.83
2022-08-26T12:03:53.258Z,25.63
2022-08-26T12:09:01.279Z,25.27
2022-08-26T12:14:25.902Z,25.14
2022-08-26T12:19:34.034Z,24.94
2022-08-26T12:24:47.666Z,24.85
2022-08-26T12:30:14.033Z,24.69
2022-08-26T12:35:20.615Z,24.66
2022-08-26T12:40:43.167Z,24.75
2022-08-26T12:46:00.487Z,24.70
2022-08-26T12:51:06.074Z,24.66
2022-08-26T12:56:24.612Z,24.58
2022-08-26T13:01:26.492Z,24.56
2022-08-26T13:06:31.115Z,24.61
2022-08-26T13:11:55.735Z,24.45
2022-08-26T13:16:57.516Z,24.30
2022-08-26T13:22:01.192Z,24.20
2022-08-26T13:27:06.850Z,24.19
2022-08-26T13:32:09.727Z,24.11
2022-08-26T13:37:12.227Z,23.85
2022-08-26T13:42:14.175Z,23.48
2022-08-26T13:47:16.854Z,23.40
2022-08-26T13:52:18.633Z,23.24
2022-08-26T13:57:32.150Z,23.08
2022-08-26T14:02:33.910Z,23.11
2022-08-26T14:07:35.781Z,23.07
2022-08-26T14:12:37.568Z,23.13
2022-08-26T14:17:39.819Z,22.29
2022-08-26T14:23:03.585Z,21.93
2022-08-26T14:28:06.261Z,21.07
2022-08-26T14:33:14.214Z,20.94
2022-08-26T14:38:16.636Z,20.92
2022-08-26T14:43:18.437Z,20.69
2022-08-26T14:48:20.248Z,20.85
2022-08-26T14:53:40.139Z,20.99
2022-08-26T14:58:41.896Z,21.04
2022-08-26T15:03:43.770Z,20.31
2022-08-26T15:08:45.771Z,20.55
2022-08-26T15:13:47.859Z,20.23
2022-08-26T15:18:51.555Z,20.53
2022-08-26T15:23:54.319Z,20.81
2022-08-26T15:28:56.857Z,20.91
2022-08-26T15:34:02.659Z,20.93
2022-08-26T15:39:07.471Z,20.71
2022-08-26T15:44:10.631Z,20.76
2022-08-26T15:49:18.520Z,20.69
2022-08-26T15:54:23.862Z,20.26
2022-08-26T15:59:25.807Z,20.14
2022-08-26T16:04:28.254Z,20.23
2022-08-26T16:09:30.728Z,20.34
2022-08-26T16:14:32.669Z,20.20
2022-08-26T16:19:34.473Z,20.14
2022-08-26T16:24:37.156Z,20.14
2022-08-26T16:29:39.711Z,20.12
2022-08-26T16:34:55.249Z,20.17
2022-08-26T16:39:58.616Z,20.30
2022-08-26T16:45:00.500Z,20.36
2022-08-26T16:50:06.590Z,20.33
2022-08-26T16:55:15.731Z,20.43
2022-08-26T17:00:32.076Z,20.15
2022-08-26T17:05:34.155Z,20.25
2022-08-26T17:10:36.168Z,20.32
2022-08-26T17:15:37.966Z,20.37
2022-08-26T17:20:39.760Z,20.39
2022-08-26T17:25:41.612Z,20.55
2022-08-26T17:30:44.324Z,20.46
2022-08-26T17:35:46.564Z,20.44
2022-08-26T17:40:49.868Z,20.60
2022-08-26T17:45:51.655Z,20.63
2022-08-26T17:50:53.666Z,20.51
2022-08-26T17:55:55.386Z,20.63
2022-08-26T18:00:57.100Z,20.62
2022-08-26T18:05:58.904Z,20.57
2022-08-26T18:11:00.654Z,20.60
2022-08-26T18:16:06.382Z,20.57
2022-08-26T18:21:19.834Z,20.45
2022-08-26T18:26:35.074Z,20.45
2022-08-26T18:31:37.377Z,20.41
2022-08-26T18:36:40.327Z,20.43
2022-08-26T18:41:48.448Z,20.40
2022-08-26T18:46:51.517Z,20.32
2022-08-26T18:51:53.407Z,20.29
2022-08-26T18:56:56.283Z,20.27
2022-08-26T19:01:58.917Z,20.19
2022-08-26T19:07:00.837Z,20.28
2022-08-26T19:12:04.210Z,20.18
2022-08-26T19:17:07.402Z,20.18
2022-08-26T19:22:09.216Z,20.27
2022-08-26T19:27:14.696Z,20.29
2022-08-26T19:32:17.572Z,20.41
2022-08-26T19:37:21.146Z,20.37
2022-08-26T19:42:22.886Z,20.44
2022-08-26T19:47:26.215Z,20.46
2022-08-26T19:52:30.019Z,20.45
2022-08-26T19:57:32.213Z,20.45
2022-08-26T20:02:34.126Z,20.44
2022-08-26T20:07:36.711Z,20.42
2022-08-26T20:12:41.569Z,20.46
2022-08-26T20:17:43.440Z,20.42
2022-08-26T20:22:45.746Z,20.42
2022-08-26T20:27:47.827Z,20.46
2022-08-26T20:32:49.707Z,20.41
2022-08-26T20:37:51.518Z,20.20
2022-08-26T20:42:53.286Z,19.99
2022-08-26T20:47:55.152Z,19.94
2022-08-26T20:52:56.910Z,20.15
2022-08-26T20:57:58.662Z,20.15
2022-08-26T21:03:00.456Z,20.20
2022-08-26T21:08:02.533Z,20.20
2022-08-26T21:13:04.438Z,20.21
2022-08-26T21:18:06.301Z,20.19
2022-08-26T21:23:08.111Z,19.98
2022-08-26T21:28:10.247Z,20.02
2022-08-26T21:33:12.141Z,20.07
2022-08-26T21:38:13.874Z,20.00
2022-08-26T21:43:27.745Z,19.87
2022-08-26T21:48:40.283Z,19.98
2022-08-26T21:53:42.291Z,20.06
2022-08-26T21:58:44.686Z,19.98
2022-08-26T22:03:48.442Z,20.21
2022-08-26T22:08:50.658Z,20.31
2022-08-26T22:13:52.509Z,20.33
2022-08-26T22:18:55.156Z,20.34
2022-08-26T22:23:58.590Z,20.32
2022-08-26T22:29:01.855Z,20.37
2022-08-26T22:34:12.234Z,20.38
2022-08-26T22:39:19.950Z,20.36
2022-08-26T22:44:22.515Z,20.45
2022-08-26T22:49:24.883Z,20.38
2022-08-26T22:54:26.694Z,20.41
2022-08-26T22:59:28.498Z,20.38
2022-08-26T23:04:30.324Z,20.44
2022-08-26T23:09:32.278Z,20.44
2022-08-26T23:14:34.222Z,20.42
2022-08-26T23:19:36.125Z,20.41
2022-08-26T23:24:37.868Z,20.39
2022-08-26T23:29:39.833Z,20.04
2022-08-26T23:34:56.560Z,19.85
2022-08-26T23:40:02.156Z,19.88
2022-08-26T23:45:12.762Z,20.05
2022-08-26T23:50:14.743Z,20.11
2022-08-26T23:55:16.907Z,20.04
